Terminal Aerodrome Forecast
Issued by NWS

Home | Current Version | Previous Version | Text Only | Print | Product List | Glossary On
Versions: 1 2 3 4 5 6 7 8 9 10 11 12 13 14 15 16 17 18
000
FTUS43 KFGF 192000 AAB
TAFDVL
TAF AMD
KDVL 192040Z 1921/2018 33018G26KT P6SM VCSH OVC040
      TEMPO 1921/1923 -SHRA BKN025
     FM200200 33017KT P6SM OVC035
     FM201200 32018G27KT P6SM OVC030
     FM201400 33024G33KT P6SM OVC025
      AMD LTD TO CLD VIS AND WIND=

USA.gov is the U.S. government's official web portal to all federal, state and local government web resources and services.